sensor_id;sensor_type;location;lat;lon;timestamp;P1;durP1;ratioP1;P2;durP2;ratioP2
34896;SDS011;43407;51.828;-2.298;2024-03-08T00:00:27;34.05;;;23.67;;
34896;SDS011;43407;51.828;-2.298;2024-03-08T00:02:52;31.08;;;23.80;;
34896;SDS011;43407;51.828;-2.298;2024-03-08T00:05:19;34.97;;;25.77;;
34896;SDS011;43407;51.828;-2.298;2024-03-08T00:07:44;33.47;;;26.13;;
34896;SDS011;43407;51.828;-2.298;2024-03-08T00:10:10;32.75;;;24.13;;
34896;SDS011;43407;51.828;-2.298;2024-03-08T00:12:40;36.83;;;26.25;;
34896;SDS011;43407;51.828;-2.298;2024-03-08T00:15:08;37.50;;;26.85;;
34896;SDS011;43407;51.828;-2.298;2024-03-08T00:17:34;37.22;;;27.70;;
34896;SDS011;43407;51.828;-2.298;2024-03-08T00:20:00;41.10;;;28.63;;
34896;SDS011;43407;51.828;-2.298;2024-03-08T00:22:25;41.05;;;28.83;;
34896;SDS011;43407;51.828;-2.298;2024-03-08T00:24:50;39.85;;;28.52;;
34896;SDS011;43407;51.828;-2.298;2024-03-08T00:27:16;37.53;;;28.52;;
34896;SDS011;43407;51.828;-2.298;2024-03-08T00:29:41;34.88;;;26.55;;
34896;SDS011;43407;51.828;-2.298;2024-03-08T00:32:06;40.33;;;28.00;;
34896;SDS011;43407;51.828;-2.298;2024-03-08T00:34:36;40.08;;;28.35;;
34896;SDS011;43407;51.828;-2.298;2024-03-08T00:37:04;38.70;;;28.92;;
34896;SDS011;43407;51.828;-2.298;2024-03-08T00:39:29;39.20;;;28.75;;
34896;SDS011;43407;51.828;-2.298;2024-03-08T00:41:55;42.45;;;30.35;;
34896;SDS011;43407;51.828;-2.298;2024-03-08T00:44:20;40.25;;;28.95;;
34896;SDS011;43407;51.828;-2.298;2024-03-08T00:46:45;41.20;;;28.65;;
34896;SDS011;43407;51.828;-2.298;2024-03-08T00:49:11;39.45;;;28.90;;
34896;SDS011;43407;51.828;-2.298;2024-03-08T00:51:37;40.78;;;29.02;;
34896;SDS011;43407;51.828;-2.298;2024-03-08T00:54:03;36.95;;;27.73;;
34896;SDS011;43407;51.828;-2.298;2024-03-08T00:56:28;38.53;;;28.77;;
34896;SDS011;43407;51.828;-2.298;2024-03-08T00:58:53;38.40;;;27.63;;
34896;SDS011;43407;51.828;-2.298;2024-03-08T01:01:19;39.58;;;28.77;;
34896;SDS011;43407;51.828;-2.298;2024-03-08T01:03:44;42.15;;;28.92;;
34896;SDS011;43407;51.828;-2.298;2024-03-08T01:06:09;39.95;;;29.05;;
34896;SDS011;43407;51.828;-2.298;2024-03-08T01:08:36;40.47;;;29.38;;
34896;SDS011;43407;51.828;-2.298;2024-03-08T01:11:03;38.65;;;27.92;;
34896;SDS011;43407;51.828;-2.298;2024-03-08T01:13:30;37.72;;;28.45;;
34896;SDS011;43407;51.828;-2.298;2024-03-08T01:15:55;37.55;;;28.27;;
34896;SDS011;43407;51.828;-2.298;2024-03-08T01:18:20;40.05;;;27.67;;
34896;SDS011;43407;51.828;-2.298;2024-03-08T01:20:46;38.88;;;28.38;;
34896;SDS011;43407;51.828;-2.298;2024-03-08T01:23:11;36.13;;;27.20;;
34896;SDS011;43407;51.828;-2.298;2024-03-08T01:25:37;38.70;;;28.85;;
34896;SDS011;43407;51.828;-2.298;2024-03-08T01:28:02;45.63;;;32.58;;
34896;SDS011;43407;51.828;-2.298;2024-03-08T01:30:28;43.83;;;30.77;;
34896;SDS011;43407;51.828;-2.298;2024-03-08T01:32:53;46.88;;;33.75;;
34896;SDS011;43407;51.828;-2.298;2024-03-08T01:35:19;49.17;;;33.67;;
34896;SDS011;43407;51.828;-2.298;2024-03-08T01:37:44;47.67;;;33.38;;
34896;SDS011;43407;51.828;-2.298;2024-03-08T01:40:10;43.08;;;31.88;;
34896;SDS011;43407;51.828;-2.298;2024-03-08T01:42:35;45.72;;;32.92;;
34896;SDS011;43407;51.828;-2.298;2024-03-08T01:45:04;46.72;;;33.90;;
34896;SDS011;43407;51.828;-2.298;2024-03-08T01:47:29;43.42;;;32.05;;
34896;SDS011;43407;51.828;-2.298;2024-03-08T01:49:58;42.28;;;30.92;;
34896;SDS011;43407;51.828;-2.298;2024-03-08T01:52:24;51.20;;;34.60;;
34896;SDS011;43407;51.828;-2.298;2024-03-08T01:54:51;49.50;;;34.13;;
34896;SDS011;43407;51.828;-2.298;2024-03-08T01:57:16;49.08;;;34.88;;
34896;SDS011;43407;51.828;-2.298;2024-03-08T01:59:42;51.33;;;36.22;;
34896;SDS011;43407;51.828;-2.298;2024-03-08T02:02:08;52.25;;;36.17;;
34896;SDS011;43407;51.828;-2.298;2024-03-08T02:04:35;51.97;;;36.90;;
34896;SDS011;43407;51.828;-2.298;2024-03-08T02:07:01;51.10;;;37.45;;
34896;SDS011;43407;51.828;-2.298;2024-03-08T02:09:27;54.90;;;38.85;;
34896;SDS011;43407;51.828;-2.298;2024-03-08T02:11:52;53.85;;;39.10;;
34896;SDS011;43407;51.828;-2.298;2024-03-08T02:14:19;56.03;;;38.83;;
34896;SDS011;43407;51.828;-2.298;2024-03-08T02:16:45;53.78;;;39.15;;
34896;SDS011;43407;51.828;-2.298;2024-03-08T02:19:10;52.58;;;38.58;;
34896;SDS011;43407;51.828;-2.298;2024-03-08T02:21:35;56.67;;;39.55;;
34896;SDS011;43407;51.828;-2.298;2024-03-08T02:24:02;52.65;;;37.30;;
34896;SDS011;43407;51.828;-2.298;2024-03-08T02:26:27;56.35;;;38.75;;
34896;SDS011;43407;51.828;-2.298;2024-03-08T02:28:53;54.95;;;37.25;;
34896;SDS011;43407;51.828;-2.298;2024-03-08T02:31:19;55.92;;;39.67;;
34896;SDS011;43407;51.828;-2.298;2024-03-08T02:33:44;51.53;;;35.17;;
34896;SDS011;43407;51.828;-2.298;2024-03-08T02:36:12;49.25;;;35.72;;
34896;SDS011;43407;51.828;-2.298;2024-03-08T02:38:37;54.47;;;36.92;;
34896;SDS011;43407;51.828;-2.298;2024-03-08T02:41:03;48.03;;;35.45;;
34896;SDS011;43407;51.828;-2.298;2024-03-08T02:43:28;57.05;;;40.05;;
34896;SDS011;43407;51.828;-2.298;2024-03-08T02:45:54;57.00;;;40.13;;
34896;SDS011;43407;51.828;-2.298;2024-03-08T02:48:19;59.97;;;40.20;;
34896;SDS011;43407;51.828;-2.298;2024-03-08T02:50:46;59.50;;;39.13;;
34896;SDS011;43407;51.828;-2.298;2024-03-08T02:53:11;54.42;;;37.75;;
34896;SDS011;43407;51.828;-2.298;2024-03-08T02:55:38;56.53;;;39.15;;
34896;SDS011;43407;51.828;-2.298;2024-03-08T02:58:04;58.72;;;39.53;;
34896;SDS011;43407;51.828;-2.298;2024-03-08T03:00:29;58.13;;;42.25;;
34896;SDS011;43407;51.828;-2.298;2024-03-08T03:02:58;60.67;;;40.03;;
34896;SDS011;43407;51.828;-2.298;2024-03-08T03:05:24;58.63;;;39.63;;
34896;SDS011;43407;51.828;-2.298;2024-03-08T03:07:49;58.97;;;41.03;;
34896;SDS011;43407;51.828;-2.298;2024-03-08T03:10:18;56.40;;;38.03;;
34896;SDS011;43407;51.828;-2.298;2024-03-08T03:12:44;53.90;;;38.67;;
34896;SDS011;43407;51.828;-2.298;2024-03-08T03:15:11;54.63;;;39.40;;
34896;SDS011;43407;51.828;-2.298;2024-03-08T03:17:36;49.90;;;36.13;;
34896;SDS011;43407;51.828;-2.298;2024-03-08T03:20:02;48.28;;;34.72;;
34896;SDS011;43407;51.828;-2.298;2024-03-08T03:22:34;49.60;;;35.00;;
34896;SDS011;43407;51.828;-2.298;2024-03-08T03:24:59;45.28;;;33.67;;
34896;SDS011;43407;51.828;-2.298;2024-03-08T03:27:25;46.13;;;33.00;;
34896;SDS011;43407;51.828;-2.298;2024-03-08T03:29:50;55.58;;;37.85;;
34896;SDS011;43407;51.828;-2.298;2024-03-08T03:32:17;50.10;;;36.58;;
34896;SDS011;43407;51.828;-2.298;2024-03-08T03:34:43;56.85;;;38.75;;
34896;SDS011;43407;51.828;-2.298;2024-03-08T03:37:09;54.80;;;38.88;;
34896;SDS011;43407;51.828;-2.298;2024-03-08T03:39:37;58.65;;;39.72;;
34896;SDS011;43407;51.828;-2.298;2024-03-08T03:42:14;50.63;;;37.90;;
34896;SDS011;43407;51.828;-2.298;2024-03-08T03:44:39;56.03;;;38.90;;
34896;SDS011;43407;51.828;-2.298;2024-03-08T03:47:05;52.38;;;39.15;;
34896;SDS011;43407;51.828;-2.298;2024-03-08T03:49:32;55.67;;;40.17;;
34896;SDS011;43407;51.828;-2.298;2024-03-08T03:51:58;58.85;;;39.28;;
34896;SDS011;43407;51.828;-2.298;2024-03-08T03:54:23;58.15;;;41.05;;
34896;SDS011;43407;51.828;-2.298;2024-03-08T03:56:48;56.08;;;39.80;;
34896;SDS011;43407;51.828;-2.298;2024-03-08T03:59:17;59.00;;;42.22;;
34896;SDS011;43407;51.828;-2.298;2024-03-08T04:01:43;60.10;;;42.50;;
34896;SDS011;43407;51.828;-2.298;2024-03-08T04:04:08;57.50;;;40.25;;
34896;SDS011;43407;51.828;-2.298;2024-03-08T04:06:34;58.75;;;41.78;;
34896;SDS011;43407;51.828;-2.298;2024-03-08T04:08:59;57.95;;;41.13;;
34896;SDS011;43407;51.828;-2.298;2024-03-08T04:11:24;59.00;;;39.80;;
34896;SDS011;43407;51.828;-2.298;2024-03-08T04:13:50;58.90;;;39.97;;
34896;SDS011;43407;51.828;-2.298;2024-03-08T04:16:15;60.88;;;42.05;;
34896;SDS011;43407;51.828;-2.298;2024-03-08T04:18:40;53.47;;;39.80;;
34896;SDS011;43407;51.828;-2.298;2024-03-08T04:21:06;61.70;;;41.83;;
34896;SDS011;43407;51.828;-2.298;2024-03-08T04:23:34;58.38;;;40.80;;
34896;SDS011;43407;51.828;-2.298;2024-03-08T04:26:02;61.78;;;43.20;;
34896;SDS011;43407;51.828;-2.298;2024-03-08T04:28:29;61.90;;;43.05;;
34896;SDS011;43407;51.828;-2.298;2024-03-08T04:30:54;52.00;;;37.03;;
34896;SDS011;43407;51.828;-2.298;2024-03-08T04:33:20;59.45;;;41.38;;
34896;SDS011;43407;51.828;-2.298;2024-03-08T04:35:46;54.40;;;39.20;;
34896;SDS011;43407;51.828;-2.298;2024-03-08T04:38:12;56.15;;;39.75;;
34896;SDS011;43407;51.828;-2.298;2024-03-08T04:40:37;55.25;;;39.10;;
34896;SDS011;43407;51.828;-2.298;2024-03-08T04:43:02;55.80;;;39.70;;
34896;SDS011;43407;51.828;-2.298;2024-03-08T04:45:28;55.85;;;38.28;;
34896;SDS011;43407;51.828;-2.298;2024-03-08T04:47:53;53.22;;;38.53;;
34896;SDS011;43407;51.828;-2.298;2024-03-08T04:50:18;55.20;;;40.28;;
34896;SDS011;43407;51.828;-2.298;2024-03-08T04:52:44;52.88;;;37.13;;
34896;SDS011;43407;51.828;-2.298;2024-03-08T04:55:09;50.17;;;36.42;;
34896;SDS011;43407;51.828;-2.298;2024-03-08T04:57:35;53.03;;;36.78;;
34896;SDS011;43407;51.828;-2.298;2024-03-08T05:00:01;54.35;;;38.72;;
34896;SDS011;43407;51.828;-2.298;2024-03-08T05:02:26;51.60;;;36.13;;
34896;SDS011;43407;51.828;-2.298;2024-03-08T05:04:51;53.75;;;36.78;;
34896;SDS011;43407;51.828;-2.298;2024-03-08T05:07:17;52.33;;;37.40;;
34896;SDS011;43407;51.828;-2.298;2024-03-08T05:09:42;50.20;;;35.72;;
34896;SDS011;43407;51.828;-2.298;2024-03-08T05:12:07;53.05;;;38.40;;
34896;SDS011;43407;51.828;-2.298;2024-03-08T05:14:33;51.03;;;35.40;;
34896;SDS011;43407;51.828;-2.298;2024-03-08T05:17:00;47.30;;;35.33;;
34896;SDS011;43407;51.828;-2.298;2024-03-08T05:19:26;48.95;;;35.63;;
34896;SDS011;43407;51.828;-2.298;2024-03-08T05:21:51;52.53;;;37.33;;
34896;SDS011;43407;51.828;-2.298;2024-03-08T05:24:17;51.38;;;36.45;;
34896;SDS011;43407;51.828;-2.298;2024-03-08T05:26:42;46.47;;;33.63;;
34896;SDS011;43407;51.828;-2.298;2024-03-08T05:29:08;50.30;;;35.90;;
34896;SDS011;43407;51.828;-2.298;2024-03-08T05:31:38;50.67;;;34.95;;
34896;SDS011;43407;51.828;-2.298;2024-03-08T05:34:07;52.38;;;36.03;;
34896;SDS011;43407;51.828;-2.298;2024-03-08T05:36:35;48.60;;;34.53;;
34896;SDS011;43407;51.828;-2.298;2024-03-08T05:39:00;46.90;;;32.95;;
34896;SDS011;43407;51.828;-2.298;2024-03-08T05:41:26;54.88;;;37.85;;
34896;SDS011;43407;51.828;-2.298;2024-03-08T05:43:51;52.03;;;36.33;;
34896;SDS011;43407;51.828;-2.298;2024-03-08T05:46:16;51.83;;;35.20;;
34896;SDS011;43407;51.828;-2.298;2024-03-08T05:48:43;49.13;;;35.25;;
34896;SDS011;43407;51.828;-2.298;2024-03-08T05:51:08;46.33;;;33.28;;
34896;SDS011;43407;51.828;-2.298;2024-03-08T05:53:34;45.05;;;33.42;;
34896;SDS011;43407;51.828;-2.298;2024-03-08T05:55:59;48.65;;;34.78;;
34896;SDS011;43407;51.828;-2.298;2024-03-08T05:58:27;50.65;;;36.10;;
34896;SDS011;43407;51.828;-2.298;2024-03-08T06:00:55;50.28;;;33.47;;
34896;SDS011;43407;51.828;-2.298;2024-03-08T06:03:20;52.13;;;36.92;;
34896;SDS011;43407;51.828;-2.298;2024-03-08T06:05:46;55.60;;;37.92;;
34896;SDS011;43407;51.828;-2.298;2024-03-08T06:08:12;51.28;;;34.80;;
34896;SDS011;43407;51.828;-2.298;2024-03-08T06:10:39;46.35;;;34.50;;
34896;SDS011;43407;51.828;-2.298;2024-03-08T06:13:05;52.60;;;34.92;;
34896;SDS011;43407;51.828;-2.298;2024-03-08T06:15:31;51.72;;;37.00;;
34896;SDS011;43407;51.828;-2.298;2024-03-08T06:17:56;52.63;;;36.35;;
34896;SDS011;43407;51.828;-2.298;2024-03-08T06:20:22;49.28;;;35.50;;
34896;SDS011;43407;51.828;-2.298;2024-03-08T06:22:51;52.70;;;36.33;;
34896;SDS011;43407;51.828;-2.298;2024-03-08T06:25:16;51.28;;;35.10;;
34896;SDS011;43407;51.828;-2.298;2024-03-08T06:27:42;55.13;;;35.97;;
34896;SDS011;43407;51.828;-2.298;2024-03-08T06:30:08;55.78;;;37.75;;
34896;SDS011;43407;51.828;-2.298;2024-03-08T06:32:35;55.97;;;37.20;;
34896;SDS011;43407;51.828;-2.298;2024-03-08T06:35:01;54.33;;;36.25;;
34896;SDS011;43407;51.828;-2.298;2024-03-08T06:37:26;50.72;;;35.45;;
34896;SDS011;43407;51.828;-2.298;2024-03-08T06:39:51;56.15;;;37.05;;
34896;SDS011;43407;51.828;-2.298;2024-03-08T06:42:19;50.95;;;35.38;;
34896;SDS011;43407;51.828;-2.298;2024-03-08T06:44:44;53.95;;;36.13;;
34896;SDS011;43407;51.828;-2.298;2024-03-08T06:47:17;51.90;;;36.25;;
34896;SDS011;43407;51.828;-2.298;2024-03-08T06:49:42;53.55;;;35.60;;
34896;SDS011;43407;51.828;-2.298;2024-03-08T06:52:09;48.78;;;35.47;;
34896;SDS011;43407;51.828;-2.298;2024-03-08T06:54:34;52.80;;;36.28;;
34896;SDS011;43407;51.828;-2.298;2024-03-08T06:57:01;58.70;;;38.00;;
34896;SDS011;43407;51.828;-2.298;2024-03-08T06:59:28;50.90;;;34.72;;
34896;SDS011;43407;51.828;-2.298;2024-03-08T07:01:54;51.63;;;35.10;;
34896;SDS011;43407;51.828;-2.298;2024-03-08T07:04:19;53.08;;;35.50;;
34896;SDS011;43407;51.828;-2.298;2024-03-08T07:06:47;55.65;;;37.35;;
34896;SDS011;43407;51.828;-2.298;2024-03-08T07:09:15;54.45;;;37.63;;
34896;SDS011;43407;51.828;-2.298;2024-03-08T07:11:41;52.25;;;35.50;;
34896;SDS011;43407;51.828;-2.298;2024-03-08T07:14:07;54.28;;;35.25;;
34896;SDS011;43407;51.828;-2.298;2024-03-08T07:16:33;50.10;;;35.30;;
34896;SDS011;43407;51.828;-2.298;2024-03-08T07:18:59;57.95;;;36.75;;
34896;SDS011;43407;51.828;-2.298;2024-03-08T07:21:24;49.15;;;34.88;;
34896;SDS011;43407;51.828;-2.298;2024-03-08T07:23:50;52.25;;;36.10;;
34896;SDS011;43407;51.828;-2.298;2024-03-08T07:26:31;50.95;;;33.95;;
34896;SDS011;43407;51.828;-2.298;2024-03-08T07:28:57;50.65;;;33.72;;
34896;SDS011;43407;51.828;-2.298;2024-03-08T07:31:24;53.15;;;34.33;;
34896;SDS011;43407;51.828;-2.298;2024-03-08T07:34:03;46.35;;;32.65;;
34896;SDS011;43407;51.828;-2.298;2024-03-08T07:36:32;52.17;;;36.28;;
34896;SDS011;43407;51.828;-2.298;2024-03-08T07:38:58;49.38;;;33.95;;
34896;SDS011;43407;51.828;-2.298;2024-03-08T07:41:24;50.13;;;33.35;;
34896;SDS011;43407;51.828;-2.298;2024-03-08T07:43:49;47.70;;;32.97;;
34896;SDS011;43407;51.828;-2.298;2024-03-08T07:46:15;51.45;;;33.45;;
34896;SDS011;43407;51.828;-2.298;2024-03-08T07:48:42;50.33;;;33.50;;
34896;SDS011;43407;51.828;-2.298;2024-03-08T07:51:10;47.10;;;32.17;;
34896;SDS011;43407;51.828;-2.298;2024-03-08T07:53:37;46.75;;;31.70;;
34896;SDS011;43407;51.828;-2.298;2024-03-08T07:56:03;46.70;;;31.95;;
34896;SDS011;43407;51.828;-2.298;2024-03-08T07:58:30;44.83;;;31.15;;
34896;SDS011;43407;51.828;-2.298;2024-03-08T08:00:55;45.35;;;31.45;;
34896;SDS011;43407;51.828;-2.298;2024-03-08T08:03:20;42.97;;;31.33;;
34896;SDS011;43407;51.828;-2.298;2024-03-08T08:05:46;45.15;;;30.60;;
34896;SDS011;43407;51.828;-2.298;2024-03-08T08:08:11;44.25;;;31.35;;
34896;SDS011;43407;51.828;-2.298;2024-03-08T08:10:37;42.92;;;29.75;;
34896;SDS011;43407;51.828;-2.298;2024-03-08T08:13:02;43.97;;;31.00;;
34896;SDS011;43407;51.828;-2.298;2024-03-08T08:15:29;40.88;;;29.05;;
34896;SDS011;43407;51.828;-2.298;2024-03-08T08:17:55;40.42;;;28.55;;
34896;SDS011;43407;51.828;-2.298;2024-03-08T08:20:20;46.88;;;31.55;;
34896;SDS011;43407;51.828;-2.298;2024-03-08T08:22:47;45.97;;;30.40;;
34896;SDS011;43407;51.828;-2.298;2024-03-08T08:25:13;43.15;;;31.58;;
34896;SDS011;43407;51.828;-2.298;2024-03-08T08:27:40;43.33;;;30.40;;
34896;SDS011;43407;51.828;-2.298;2024-03-08T08:30:07;43.17;;;28.67;;
34896;SDS011;43407;51.828;-2.298;2024-03-08T08:32:34;40.97;;;28.25;;
34896;SDS011;43407;51.828;-2.298;2024-03-08T08:35:00;39.65;;;29.60;;
34896;SDS011;43407;51.828;-2.298;2024-03-08T08:37:25;47.42;;;29.70;;
34896;SDS011;43407;51.828;-2.298;2024-03-08T08:39:50;37.83;;;26.08;;
34896;SDS011;43407;51.828;-2.298;2024-03-08T08:42:16;37.75;;;26.98;;
34896;SDS011;43407;51.828;-2.298;2024-03-08T08:44:42;38.03;;;27.52;;
34896;SDS011;43407;51.828;-2.298;2024-03-08T08:47:08;41.90;;;29.20;;
34896;SDS011;43407;51.828;-2.298;2024-03-08T08:49:33;44.42;;;29.08;;
34896;SDS011;43407;51.828;-2.298;2024-03-08T08:51:59;41.72;;;29.52;;
34896;SDS011;43407;51.828;-2.298;2024-03-08T08:54:24;43.67;;;29.75;;
34896;SDS011;43407;51.828;-2.298;2024-03-08T08:56:50;42.95;;;28.38;;
34896;SDS011;43407;51.828;-2.298;2024-03-08T08:59:15;40.15;;;29.45;;
34896;SDS011;43407;51.828;-2.298;2024-03-08T09:01:44;39.90;;;28.13;;
34896;SDS011;43407;51.828;-2.298;2024-03-08T09:04:12;47.60;;;28.58;;
34896;SDS011;43407;51.828;-2.298;2024-03-08T09:06:37;40.60;;;28.77;;
34896;SDS011;43407;51.828;-2.298;2024-03-08T09:09:04;39.75;;;28.10;;
34896;SDS011;43407;51.828;-2.298;2024-03-08T09:11:30;39.25;;;28.15;;
34896;SDS011;43407;51.828;-2.298;2024-03-08T09:13:56;43.63;;;29.75;;
34896;SDS011;43407;51.828;-2.298;2024-03-08T09:16:21;44.95;;;30.20;;
34896;SDS011;43407;51.828;-2.298;2024-03-08T09:18:46;42.83;;;30.38;;
34896;SDS011;43407;51.828;-2.298;2024-03-08T09:21:13;46.83;;;31.50;;
34896;SDS011;43407;51.828;-2.298;2024-03-08T09:23:39;44.97;;;28.05;;
34896;SDS011;43407;51.828;-2.298;2024-03-08T09:26:05;41.58;;;30.73;;
34896;SDS011;43407;51.828;-2.298;2024-03-08T09:28:34;44.20;;;30.02;;
34896;SDS011;43407;51.828;-2.298;2024-03-08T09:30:59;41.80;;;29.70;;
34896;SDS011;43407;51.828;-2.298;2024-03-08T09:33:26;44.35;;;29.70;;
34896;SDS011;43407;51.828;-2.298;2024-03-08T09:35:53;44.58;;;30.95;;
34896;SDS011;43407;51.828;-2.298;2024-03-08T09:38:19;42.10;;;28.77;;
34896;SDS011;43407;51.828;-2.298;2024-03-08T09:40:45;39.05;;;28.30;;
34896;SDS011;43407;51.828;-2.298;2024-03-08T09:43:11;40.20;;;27.05;;
34896;SDS011;43407;51.828;-2.298;2024-03-08T09:45:39;41.95;;;27.92;;
34896;SDS011;43407;51.828;-2.298;2024-03-08T09:48:12;39.45;;;28.85;;
34896;SDS011;43407;51.828;-2.298;2024-03-08T09:50:42;43.30;;;28.85;;
34896;SDS011;43407;51.828;-2.298;2024-03-08T09:53:07;38.17;;;27.92;;
34896;SDS011;43407;51.828;-2.298;2024-03-08T09:55:36;42.90;;;26.98;;
34896;SDS011;43407;51.828;-2.298;2024-03-08T09:58:02;37.17;;;27.42;;
34896;SDS011;43407;51.828;-2.298;2024-03-08T10:00:45;39.25;;;26.80;;
34896;SDS011;43407;51.828;-2.298;2024-03-08T10:03:11;36.17;;;26.77;;
34896;SDS011;43407;51.828;-2.298;2024-03-08T10:05:36;37.40;;;25.67;;
34896;SDS011;43407;51.828;-2.298;2024-03-08T10:08:01;35.53;;;25.40;;
34896;SDS011;43407;51.828;-2.298;2024-03-08T10:10:27;35.45;;;25.33;;
34896;SDS011;43407;51.828;-2.298;2024-03-08T10:12:52;33.97;;;25.42;;
34896;SDS011;43407;51.828;-2.298;2024-03-08T10:15:17;35.65;;;26.08;;
34896;SDS011;43407;51.828;-2.298;2024-03-08T10:17:43;35.55;;;25.63;;
34896;SDS011;43407;51.828;-2.298;2024-03-08T10:20:15;37.03;;;25.10;;
34896;SDS011;43407;51.828;-2.298;2024-03-08T10:22:41;34.17;;;25.83;;
34896;SDS011;43407;51.828;-2.298;2024-03-08T10:25:09;37.65;;;25.85;;
34896;SDS011;43407;51.828;-2.298;2024-03-08T10:27:35;38.42;;;26.20;;
34896;SDS011;43407;51.828;-2.298;2024-03-08T10:30:01;35.30;;;25.88;;
34896;SDS011;43407;51.828;-2.298;2024-03-08T10:32:26;34.47;;;24.65;;
34896;SDS011;43407;51.828;-2.298;2024-03-08T10:34:52;44.67;;;25.00;;
34896;SDS011;43407;51.828;-2.298;2024-03-08T10:37:18;37.13;;;25.85;;
34896;SDS011;43407;51.828;-2.298;2024-03-08T10:39:49;35.58;;;24.15;;
34896;SDS011;43407;51.828;-2.298;2024-03-08T10:42:19;37.22;;;25.52;;
34896;SDS011;43407;51.828;-2.298;2024-03-08T10:44:49;38.35;;;25.10;;
34896;SDS011;43407;51.828;-2.298;2024-03-08T10:47:21;36.25;;;25.15;;
34896;SDS011;43407;51.828;-2.298;2024-03-08T10:49:54;36.78;;;24.65;;
34896;SDS011;43407;51.828;-2.298;2024-03-08T10:52:20;36.05;;;25.27;;
34896;SDS011;43407;51.828;-2.298;2024-03-08T10:54:45;34.38;;;24.10;;
34896;SDS011;43407;51.828;-2.298;2024-03-08T10:57:12;32.78;;;23.52;;
34896;SDS011;43407;51.828;-2.298;2024-03-08T10:59:38;35.70;;;24.10;;
34896;SDS011;43407;51.828;-2.298;2024-03-08T11:02:04;34.72;;;23.55;;
34896;SDS011;43407;51.828;-2.298;2024-03-08T11:04:31;35.78;;;24.70;;
34896;SDS011;43407;51.828;-2.298;2024-03-08T11:07:02;33.97;;;24.38;;
34896;SDS011;43407;51.828;-2.298;2024-03-08T11:09:36;33.60;;;25.02;;
34896;SDS011;43407;51.828;-2.298;2024-03-08T11:12:19;34.60;;;24.63;;
34896;SDS011;43407;51.828;-2.298;2024-03-08T11:14:45;34.72;;;22.50;;
34896;SDS011;43407;51.828;-2.298;2024-03-08T11:19:58;33.17;;;23.85;;
34896;SDS011;43407;51.828;-2.298;2024-03-08T11:22:27;32.13;;;23.15;;
34896;SDS011;43407;51.828;-2.298;2024-03-08T11:24:53;31.25;;;23.55;;
34896;SDS011;43407;51.828;-2.298;2024-03-08T11:27:18;31.63;;;23.20;;
34896;SDS011;43407;51.828;-2.298;2024-03-08T11:29:50;33.78;;;23.58;;
34896;SDS011;43407;51.828;-2.298;2024-03-08T11:32:26;36.67;;;23.92;;
34896;SDS011;43407;51.828;-2.298;2024-03-08T11:34:53;33.17;;;22.73;;
34896;SDS011;43407;51.828;-2.298;2024-03-08T11:37:19;33.03;;;22.15;;
34896;SDS011;43407;51.828;-2.298;2024-03-08T11:39:49;32.38;;;23.45;;
34896;SDS011;43407;51.828;-2.298;2024-03-08T11:42:15;33.67;;;22.73;;
34896;SDS011;43407;51.828;-2.298;2024-03-08T11:44:42;34.50;;;24.65;;
34896;SDS011;43407;51.828;-2.298;2024-03-08T11:47:09;36.80;;;22.85;;
34896;SDS011;43407;51.828;-2.298;2024-03-08T11:49:35;33.45;;;22.45;;
34896;SDS011;43407;51.828;-2.298;2024-03-08T11:52:01;32.90;;;21.08;;
34896;SDS011;43407;51.828;-2.298;2024-03-08T11:54:28;29.77;;;22.77;;
34896;SDS011;43407;51.828;-2.298;2024-03-08T11:56:55;34.30;;;22.48;;
34896;SDS011;43407;51.828;-2.298;2024-03-08T11:59:20;28.42;;;21.13;;
34896;SDS011;43407;51.828;-2.298;2024-03-08T12:01:57;32.03;;;22.88;;
34896;SDS011;43407;51.828;-2.298;2024-03-08T12:04:23;29.55;;;22.20;;
34896;SDS011;43407;51.828;-2.298;2024-03-08T12:06:49;30.25;;;21.25;;
34896;SDS011;43407;51.828;-2.298;2024-03-08T12:09:15;29.90;;;21.17;;
34896;SDS011;43407;51.828;-2.298;2024-03-08T12:11:41;29.02;;;21.92;;
34896;SDS011;43407;51.828;-2.298;2024-03-08T12:14:07;27.33;;;20.60;;
34896;SDS011;43407;51.828;-2.298;2024-03-08T12:16:33;27.90;;;20.83;;
34896;SDS011;43407;51.828;-2.298;2024-03-08T12:18:59;27.33;;;21.35;;
34896;SDS011;43407;51.828;-2.298;2024-03-08T12:21:25;28.10;;;21.25;;
34896;SDS011;43407;51.828;-2.298;2024-03-08T12:26:28;28.73;;;22.33;;
34896;SDS011;43407;51.828;-2.298;2024-03-08T12:28:56;28.52;;;20.88;;
34896;SDS011;43407;51.828;-2.298;2024-03-08T12:31:39;30.90;;;20.98;;
34896;SDS011;43407;51.828;-2.298;2024-03-08T12:34:04;29.67;;;21.15;;
34896;SDS011;43407;51.828;-2.298;2024-03-08T12:36:29;28.40;;;20.77;;
34896;SDS011;43407;51.828;-2.298;2024-03-08T12:38:55;34.80;;;21.35;;
34896;SDS011;43407;51.828;-2.298;2024-03-08T12:41:21;26.55;;;20.05;;
34896;SDS011;43407;51.828;-2.298;2024-03-08T12:43:47;30.20;;;20.88;;
34896;SDS011;43407;51.828;-2.298;2024-03-08T12:46:22;29.75;;;21.33;;
34896;SDS011;43407;51.828;-2.298;2024-03-08T12:48:51;28.75;;;21.90;;
34896;SDS011;43407;51.828;-2.298;2024-03-08T12:51:18;29.50;;;21.45;;
34896;SDS011;43407;51.828;-2.298;2024-03-08T12:53:45;29.10;;;20.98;;
34896;SDS011;43407;51.828;-2.298;2024-03-08T12:56:19;27.65;;;21.20;;
34896;SDS011;43407;51.828;-2.298;2024-03-08T12:58:45;28.52;;;20.00;;
34896;SDS011;43407;51.828;-2.298;2024-03-08T13:01:11;27.60;;;20.35;;
34896;SDS011;43407;51.828;-2.298;2024-03-08T13:03:37;24.05;;;18.17;;
34896;SDS011;43407;51.828;-2.298;2024-03-08T13:06:03;26.73;;;20.27;;
34896;SDS011;43407;51.828;-2.298;2024-03-08T13:08:33;28.92;;;21.58;;
34896;SDS011;43407;51.828;-2.298;2024-03-08T13:11:01;27.02;;;20.58;;
34896;SDS011;43407;51.828;-2.298;2024-03-08T13:13:26;25.25;;;20.05;;
34896;SDS011;43407;51.828;-2.298;2024-03-08T13:15:51;27.25;;;18.58;;
34896;SDS011;43407;51.828;-2.298;2024-03-08T13:18:18;27.67;;;19.88;;
34896;SDS011;43407;51.828;-2.298;2024-03-08T13:20:43;27.88;;;21.58;;
34896;SDS011;43407;51.828;-2.298;2024-03-08T13:23:14;30.25;;;21.65;;
34896;SDS011;43407;51.828;-2.298;2024-03-08T13:25:39;28.80;;;20.95;;
34896;SDS011;43407;51.828;-2.298;2024-03-08T13:28:05;30.13;;;21.95;;
34896;SDS011;43407;51.828;-2.298;2024-03-08T13:30:31;27.23;;;19.83;;
34896;SDS011;43407;51.828;-2.298;2024-03-08T13:32:57;28.00;;;20.20;;
34896;SDS011;43407;51.828;-2.298;2024-03-08T13:35:22;28.52;;;19.83;;
34896;SDS011;43407;51.828;-2.298;2024-03-08T13:37:51;26.80;;;20.17;;
34896;SDS011;43407;51.828;-2.298;2024-03-08T13:40:17;24.80;;;18.55;;
34896;SDS011;43407;51.828;-2.298;2024-03-08T13:42:46;25.20;;;19.70;;
34896;SDS011;43407;51.828;-2.298;2024-03-08T13:45:12;29.83;;;20.77;;
34896;SDS011;43407;51.828;-2.298;2024-03-08T13:47:41;28.77;;;20.45;;
34896;SDS011;43407;51.828;-2.298;2024-03-08T13:50:07;30.08;;;21.77;;
34896;SDS011;43407;51.828;-2.298;2024-03-08T13:52:33;26.05;;;19.40;;
34896;SDS011;43407;51.828;-2.298;2024-03-08T13:55:00;26.33;;;19.35;;
34896;SDS011;43407;51.828;-2.298;2024-03-08T13:57:25;25.08;;;19.50;;
34896;SDS011;43407;51.828;-2.298;2024-03-08T13:59:52;25.80;;;19.15;;
34896;SDS011;43407;51.828;-2.298;2024-03-08T14:02:17;24.63;;;18.00;;
34896;SDS011;43407;51.828;-2.298;2024-03-08T14:04:43;25.77;;;20.48;;
34896;SDS011;43407;51.828;-2.298;2024-03-08T14:07:08;27.38;;;19.33;;
34896;SDS011;43407;51.828;-2.298;2024-03-08T14:09:34;25.40;;;20.48;;